»·PEaware :: N800DW KSFO-KLGB

N800DW :: KSFO-KLGB

FLIGHT INFORMATION

Flight Status: Arrived
Operator: Privately registered:
United States
More flights under this callsign
Pilot: Scott L. (17677)
Aircraft: Unknown
(SF50)
More flights by this aircraft type
Origin: KSFO San Francisco Intl
United States
Destination: KLGB Long Beach
United States
More flights between these airports :: More routes between these airports
Route: OFFSH1 MCKEY TILLT BAUBB1
File this flight plan on PilotEdge
Remarks:
Altitude:
(Current/Filed)
27,000ft
Speed:
(Current/Filed)
300kts
Departed: 28-Sep-18 09:38 AM
Arrived: 28-Sep-18 11:15 AM
Distance/Time
Traveled:
307nm/1:36
Distance/Time
To Go:
Arrived

Flight Plot

Page will automatically refresh every two minutes.

Flight plan parsing failed; only flown route is shown


Map Options




Map Legend


Flown Route
Filed Route
Departure Airport
Arrival Airport
Navaid (VOR, NDB)
Fix

Horizontal Profiles

Position Reports

Time Latitude Longitude Heading Altitude Ground
Speed
28-Sep-18 09:30 37.632273 -122.390316 79 11ft 0kts
28-Sep-18 09:31 37.632273 -122.390316 79 11ft 0kts
28-Sep-18 09:32 37.632273 -122.390316 79 11ft 0kts
28-Sep-18 09:33 37.632195 -122.390325 247 11ft 0kts
28-Sep-18 09:34 37.632195 -122.390325 247 11ft 0kts
28-Sep-18 09:35 37.632195 -122.390325 247 11ft 0kts
28-Sep-18 09:36 37.632195 -122.390325 247 11ft 0kts
28-Sep-18 09:37 37.632195 -122.390325 247 11ft 0kts
28-Sep-18 09:38 37.632189 -122.390346 246 11ft 1kts
28-Sep-18 09:39 37.629402 -122.391222 120 15ft 24kts
28-Sep-18 09:40 37.623197 -122.376569 114 15ft 53kts
28-Sep-18 09:41 37.622361 -122.375500 224 15ft 0kts
28-Sep-18 09:42 37.622361 -122.375500 224 15ft 0kts
28-Sep-18 09:43 37.622361 -122.375501 224 15ft 0kts
28-Sep-18 09:44 37.621963 -122.377258 299 15ft 36kts
28-Sep-18 09:45 37.635194 -122.410660 311 1865ft 134kts
28-Sep-18 09:46 37.654473 -122.453638 296 4701ft 148kts
28-Sep-18 09:47 37.672812 -122.498370 293 7532ft 144kts
28-Sep-18 09:48 37.658690 -122.533960 216 10034ft 129kts
28-Sep-18 09:49 37.632685 -122.563223 224 12278ft 128kts
28-Sep-18 09:50 37.611430 -122.598389 225 14304ft 126kts
28-Sep-18 09:51 37.587353 -122.637440 225 15779ft 161kts
28-Sep-18 09:52 37.561215 -122.691058 236 17167ft 200kts
28-Sep-18 09:53 37.528614 -122.748786 184 18501ft 209kts
28-Sep-18 09:54 37.471372 -122.729465 167 19871ft 219kts
28-Sep-18 09:55 37.411941 -122.709757 169 21173ft 223kts
28-Sep-18 09:56 37.341548 -122.688988 169 22676ft 223kts
28-Sep-18 09:57 37.291588 -122.674653 170 23741ft 220kts
28-Sep-18 09:58 37.232117 -122.659910 172 25016ft 215kts
28-Sep-18 09:59 37.174325 -122.645522 172 26280ft 209kts
28-Sep-18 10:00 37.117103 -122.630688 172 27012ft 225kts
28-Sep-18 10:01 37.051139 -122.613716 172 27005ft 256kts
28-Sep-18 10:02 36.978844 -122.594480 172 27000ft 273kts
28-Sep-18 10:03 36.903586 -122.573742 172 26998ft 281kts
28-Sep-18 10:04 36.827160 -122.552756 171 27005ft 286kts
28-Sep-18 10:05 36.748986 -122.531380 171 27004ft 288kts
28-Sep-18 10:06 36.670568 -122.509969 171 27003ft 289kts
28-Sep-18 10:07 36.591970 -122.488513 171 27003ft 290kts
28-Sep-18 10:08 36.513493 -122.467082 171 27002ft 290kts
28-Sep-18 10:09 36.434751 -122.445564 171 27001ft 290kts
28-Sep-18 10:10 36.356315 -122.424112 171 27001ft 290kts
28-Sep-18 10:11 36.278794 -122.395993 160 27000ft 295kts
28-Sep-18 10:12 36.222081 -122.325021 130 26997ft 313kts
28-Sep-18 10:13 36.174520 -122.234870 129 26996ft 313kts
28-Sep-18 10:14 36.127399 -122.145409 129 26996ft 313kts
28-Sep-18 10:15 36.079996 -122.055370 129 26996ft 312kts
28-Sep-18 10:16 36.058106 -121.948254 106 26995ft 327kts
28-Sep-18 10:17 36.021092 -121.851259 134 26997ft 309kts
28-Sep-18 10:18 35.966253 -121.770433 137 26996ft 308kts
28-Sep-18 10:19 35.910533 -121.690415 137 26996ft 308kts
28-Sep-18 10:20 35.855347 -121.611406 137 27003ft 309kts
28-Sep-18 10:21 35.799340 -121.531400 137 26999ft 310kts
28-Sep-18 10:22 35.743545 -121.451881 137 26996ft 310kts
28-Sep-18 10:23 35.687144 -121.371690 137 26995ft 310kts
28-Sep-18 10:24 35.632503 -121.294179 137 26990ft 310kts
28-Sep-18 10:25 35.576464 -121.214868 137 26990ft 309kts
28-Sep-18 10:26 35.520404 -121.135802 137 26995ft 309kts
28-Sep-18 10:27 35.470886 -121.049759 118 27025ft 319kts
28-Sep-18 10:28 35.420638 -120.964889 143 27008ft 310kts
28-Sep-18 10:29 35.355889 -120.895177 142 27026ft 312kts
28-Sep-18 10:30 35.292627 -120.826922 142 27027ft 313kts
28-Sep-18 10:31 35.227519 -120.756827 142 27027ft 313kts
28-Sep-18 10:32 35.162654 -120.687147 142 27026ft 313kts
28-Sep-18 10:33 35.097456 -120.617265 142 27026ft 313kts
28-Sep-18 10:34 35.030978 -120.549965 150 27035ft 310kts
28-Sep-18 10:35 34.959274 -120.491794 150 27026ft 311kts
28-Sep-18 10:36 34.888559 -120.434572 149 27030ft 311kts
28-Sep-18 10:37 34.816582 -120.376442 149 27029ft 312kts
28-Sep-18 10:38 34.750201 -120.322940 150 27025ft 313kts
28-Sep-18 10:39 34.678014 -120.264906 150 27026ft 312kts
28-Sep-18 10:40 34.605505 -120.206848 150 27027ft 312kts
28-Sep-18 10:41 34.532684 -120.148669 150 26880ft 315kts
28-Sep-18 10:42 34.460643 -120.091225 150 27015ft 311kts
28-Sep-18 10:43 34.388510 -120.033837 150 26997ft 312kts
28-Sep-18 10:44 34.315937 -119.976214 150 26990ft 312kts
28-Sep-18 10:45 34.243446 -119.918786 150 26818ft 317kts
28-Sep-18 10:46 34.169182 -119.860074 150 26511ft 321kts
28-Sep-18 10:47 34.094386 -119.801061 150 26210ft 322kts
28-Sep-18 10:48 34.042413 -119.720672 124 24041ft 297kts
28-Sep-18 10:49 34.001480 -119.638577 125 21623ft 279kts
28-Sep-18 10:50 33.960350 -119.556783 124 21012ft 296kts
28-Sep-18 10:51 33.917145 -119.470931 124 21009ft 305kts
28-Sep-18 10:52 33.873492 -119.383162 123 20581ft 322kts
28-Sep-18 10:53 33.834398 -119.303819 123 19021ft 348kts
28-Sep-18 10:54 33.784768 -119.203228 123 17077ft 345kts
28-Sep-18 10:55 33.742020 -119.116711 124 14983ft 282kts
28-Sep-18 10:56 33.702836 -119.037804 124 12983ft 258kts
28-Sep-18 10:57 33.667894 -118.967814 122 11039ft 235kts
28-Sep-18 10:58 33.633494 -118.898736 121 11036ft 272kts
28-Sep-18 10:59 33.593871 -118.819260 121 11001ft 276kts
28-Sep-18 11:00 33.564902 -118.734344 101 10314ft 278kts
28-Sep-18 11:01 33.551849 -118.651926 100 9020ft 231kts
28-Sep-18 11:02 33.540134 -118.579236 101 9028ft 222kts
28-Sep-18 11:03 33.528312 -118.506458 101 9024ft 224kts
28-Sep-18 11:04 33.520722 -118.431284 91 8451ft 246kts
28-Sep-18 11:05 33.518708 -118.350695 91 6999ft 218kts
28-Sep-18 11:06 33.532133 -118.288372 68 6051ft 227kts
28-Sep-18 11:07 33.551733 -118.227345 68 4762ft 213kts
28-Sep-18 11:08 33.572083 -118.163728 68 3987ft 191kts
28-Sep-18 11:09 33.590249 -118.107109 68 3992ft 187kts
28-Sep-18 11:10 33.626744 -118.057694 31 3350ft 220kts
28-Sep-18 11:11 33.671243 -118.024566 31 2971ft 156kts
28-Sep-18 11:12 33.704516 -118.016738 321 2648ft 150kts
28-Sep-18 11:13 33.737107 -118.053892 314 1562ft 149kts
28-Sep-18 11:14 33.763328 -118.085533 314 1366ft 140kts
28-Sep-18 11:15 33.790738 -118.118646 314 620ft 133kts
28-Sep-18 11:16 33.812861 -118.145413 314 45ft 96kts
28-Sep-18 11:17 33.818535 -118.150956 85 44ft 0kts
28-Sep-18 11:18 33.818535 -118.150956 85 44ft 0kts
28-Sep-18 11:19 33.818535 -118.150944 85 44ft 1kts
28-Sep-18 11:20 33.816327 -118.147620 147 44ft 15kts
28-Sep-18 11:21 33.814934 -118.148293 272 44ft 14kts
28-Sep-18 11:22 33.813734 -118.151185 206 44ft 17kts
28-Sep-18 11:23 33.812493 -118.150808 88 44ft 0kts
28-Sep-18 11:24 33.812493 -118.150808 88 44ft 0kts
28-Sep-18 11:25 33.812493 -118.150808 88 44ft 0kts
28-Sep-18 11:26 33.812493 -118.150808 88 44ft 0kts
28-Sep-18 11:27 33.812493 -118.150808 88 44ft 0kts
28-Sep-18 11:28 33.812493 -118.150808 88 44ft 0kts

Navigation Log

Ident Type
Flight plan parsing failed, navigation log unavailable